< < Back
Terminal Aerodrome Forecast


Current Version              Previous Versions:   1  2  3  4  5  6  7  8  9  

Terminal Aerodrome Forecast

534
FTUS42 KGSP 202300
TAFCLT
TAF
KCLT 202337Z 2100/2124 26003KT P6SM FEW060 BKN250
     FM210800 00000KT P6SM FEW250
     FM211300 35003KT P6SM SCT250
     FM211800 30005KT P6SM SCT060=



Latest METAR

323
SAUS70 KWBC 210400
MTRCLT
METAR KCLT 210352Z 31003KT 10SM FEW045 OVC250 26/21 A3006 RMK AO2 SLP167
T02560211


USA.gov is the U.S. government's official web portal to all federal, state and local government web resources and services.